Terminal Aerodrome Forecast
Issued by NWS

Home | Current Version | Previous Version | Text Only | Print | Product List | Glossary On
Versions: 1 2 3 4 5 6 7 8 9 10 11 12 13 14 15 16 17 18 19 20 21
000
FTUS43 KPAH 262125 AAA
TAFOWB
TAF AMD
KOWB 262125Z 2621/2718 17012KT P6SM -SHRA VCTS OVC120CB
      TEMPO 2622/2624 5SM SHRA OVC070
     FM270000 18008KT P6SM BKN150
     FM271500 20010G17KT P6SM BKN150=

USA.gov is the U.S. government's official web portal to all federal, state and local government web resources and services.